createdAt,value
2023-08-11T00:00:38.030Z,100540.25
2023-08-11T00:07:58.569Z,100540.56
2023-08-11T00:15:18.243Z,100548.53
2023-08-11T00:22:37.015Z,100553.25
2023-08-11T00:29:57.852Z,100547.19
2023-08-11T00:37:16.842Z,100557.56
2023-08-11T00:44:35.682Z,100561.69
2023-08-11T00:51:56.008Z,100561.19
2023-08-11T00:59:15.152Z,100552.63
2023-08-11T01:06:39.292Z,100550.19
2023-08-11T01:14:09.062Z,100553.50
2023-08-11T01:21:29.827Z,100543.56
2023-08-11T01:28:50.540Z,100540.59
2023-08-11T01:36:09.965Z,100533.19
2023-08-11T01:43:29.436Z,100537.97
2023-08-11T01:50:49.886Z,100527.75
2023-08-11T01:58:08.687Z,100537.81
2023-08-11T02:05:27.240Z,100542.13
2023-08-11T02:12:47.221Z,100540.25
2023-08-11T02:20:15.058Z,100541.91
2023-08-11T02:27:33.420Z,100536.16
2023-08-11T02:34:53.050Z,100547.50
2023-08-11T02:42:11.479Z,100547.00
2023-08-11T02:49:29.883Z,100549.47
2023-08-11T02:56:50.354Z,100544.72
2023-08-11T03:04:08.691Z,100541.38
2023-08-11T03:11:27.032Z,100539.22
2023-08-11T03:18:46.996Z,100526.78
2023-08-11T03:26:05.723Z,100538.91
2023-08-11T03:33:25.132Z,100537.09
2023-08-11T03:40:54.353Z,100537.41
2023-08-11T03:48:12.655Z,100531.78
2023-08-11T03:55:31.450Z,100531.25
2023-08-11T04:02:51.660Z,100535.75
2023-08-11T04:10:13.013Z,100550.63
2023-08-11T04:17:33.240Z,100552.19
2023-08-11T04:24:53.065Z,100555.06
2023-08-11T04:32:11.834Z,100561.94
2023-08-11T04:39:30.473Z,100582.94
2023-08-11T04:46:50.680Z,100591.78
2023-08-11T04:54:09.088Z,100601.53
2023-08-11T05:01:27.560Z,100611.44
2023-08-11T05:08:48.597Z,100598.13
2023-08-11T05:16:06.942Z,100603.81
2023-08-11T05:23:25.229Z,100607.56
2023-08-11T05:30:45.030Z,100611.56
2023-08-11T05:38:03.300Z,100622.06
2023-08-11T05:45:21.665Z,100612.53
2023-08-11T05:52:41.525Z,100614.69
2023-08-11T06:00:00.118Z,100611.59
2023-08-11T06:07:19.498Z,100612.16
2023-08-11T06:14:39.275Z,100600.03
2023-08-11T06:21:57.653Z,100608.78
2023-08-11T06:29:16.436Z,100620.34
2023-08-11T06:36:36.187Z,100620.75
2023-08-11T06:43:55.298Z,100635.56
2023-08-11T06:51:13.446Z,100636.03
2023-08-11T06:58:33.005Z,100635.69
2023-08-11T07:05:53.025Z,100641.63
2023-08-11T07:13:11.393Z,100642.50
2023-08-11T07:20:31.061Z,100648.94
2023-08-11T07:27:49.277Z,100645.00
2023-08-11T07:35:08.606Z,100650.06
2023-08-11T07:42:28.319Z,100660.16
2023-08-11T07:49:46.712Z,100657.94
2023-08-11T07:57:05.247Z,100660.06
2023-08-11T08:04:24.823Z,100665.97
2023-08-11T08:11:44.899Z,100668.25
2023-08-11T08:19:04.045Z,100658.31
2023-08-11T08:26:23.747Z,100668.13
2023-08-11T08:33:41.897Z,100666.47
2023-08-11T08:41:00.189Z,100658.59
2023-08-11T08:48:24.923Z,100661.72
2023-08-11T08:55:43.280Z,100674.84
2023-08-11T09:03:01.795Z,100671.03
2023-08-11T09:10:21.833Z,100668.75
2023-08-11T09:17:40.740Z,100667.91
2023-08-11T09:24:59.197Z,100657.34
2023-08-11T09:32:18.784Z,100655.25
2023-08-11T09:39:38.573Z,100660.94
2023-08-11T09:46:57.819Z,100666.53
2023-08-11T09:54:17.976Z,100666.28
2023-08-11T10:01:37.939Z,100665.81
2023-08-11T10:08:56.544Z,100659.00
2023-08-11T10:16:16.670Z,100660.28
2023-08-11T10:23:35.699Z,100659.84
2023-08-11T10:30:58.055Z,100665.38
2023-08-11T10:38:26.121Z,100655.47
2023-08-11T10:45:45.012Z,100653.78
2023-08-11T10:53:08.828Z,100651.09
2023-08-11T11:00:28.378Z,100645.44
2023-08-11T11:07:46.662Z,100645.66
2023-08-11T11:15:05.668Z,100642.66
2023-08-11T11:22:26.908Z,100642.78
2023-08-11T11:29:45.066Z,100636.91
2023-08-11T11:37:05.887Z,100630.41
2023-08-11T11:44:25.634Z,100643.84
2023-08-11T11:51:44.365Z,100633.97
2023-08-11T11:59:03.252Z,100645.75
2023-08-11T12:06:23.437Z,100637.63
2023-08-11T12:13:44.989Z,100648.22
2023-08-11T12:21:05.326Z,100647.06
2023-08-11T12:28:25.059Z,100651.00
2023-08-11T12:35:43.425Z,100641.91
2023-08-11T12:43:01.812Z,100646.59
2023-08-11T12:50:23.421Z,100652.66
2023-08-11T12:57:41.728Z,100666.31
2023-08-11T13:04:59.836Z,100656.78
2023-08-11T13:12:19.475Z,100660.50
2023-08-11T13:19:37.780Z,100640.19
2023-08-11T13:26:55.980Z,100645.06
2023-08-11T13:34:15.559Z,100643.19
2023-08-11T13:41:33.741Z,100640.09
2023-08-11T13:48:51.918Z,100649.50
2023-08-11T13:56:13.168Z,100636.06
2023-08-11T14:03:31.382Z,100627.75
2023-08-11T14:10:49.786Z,100636.72
2023-08-11T14:18:09.733Z,100636.47
2023-08-11T14:25:27.975Z,100633.31
2023-08-11T14:32:46.150Z,100614.28
2023-08-11T14:40:07.055Z,100628.91
2023-08-11T14:47:25.196Z,100624.56
2023-08-11T14:54:43.553Z,100608.69
2023-08-11T15:02:03.182Z,100618.63
2023-08-11T15:09:21.296Z,100618.78
2023-08-11T15:16:39.650Z,100618.78
2023-08-11T15:23:59.211Z,100607.47
2023-08-11T15:31:17.541Z,100606.59
2023-08-11T15:38:35.839Z,100604.00
2023-08-11T15:45:55.671Z,100608.00
2023-08-11T15:53:15.236Z,100618.31
2023-08-11T16:00:33.439Z,100614.97
2023-08-11T16:07:53.168Z,100612.41
2023-08-11T16:15:11.673Z,100606.50
2023-08-11T16:22:31.474Z,100598.59
2023-08-11T16:29:52.982Z,100595.59
2023-08-11T16:37:12.671Z,100597.03
2023-08-11T16:44:30.765Z,100601.22
2023-08-11T16:51:50.429Z,100596.97
2023-08-11T16:59:08.662Z,100600.56
2023-08-11T17:06:27.103Z,100593.69
2023-08-11T17:13:48.546Z,100593.56
2023-08-11T17:21:06.824Z,100589.75
2023-08-11T17:28:25.061Z,100590.66
2023-08-11T17:35:44.730Z,100594.81
2023-08-11T17:43:03.086Z,100595.19
2023-08-11T17:50:21.259Z,100601.84
2023-08-11T17:57:40.866Z,100603.09
2023-08-11T18:04:59.542Z,100593.31
2023-08-11T18:12:17.668Z,100599.41
2023-08-11T18:19:37.296Z,100608.66
2023-08-11T18:26:55.351Z,100623.63
2023-08-11T18:34:13.806Z,100634.84
2023-08-11T18:41:33.696Z,100636.47
2023-08-11T18:49:03.203Z,100656.97
2023-08-11T18:56:22.003Z,100646.56
2023-08-11T19:03:42.087Z,100650.63
2023-08-11T19:11:01.124Z,100656.47
2023-08-11T19:18:19.874Z,100646.66
2023-08-11T19:26:22.998Z,100664.75
2023-08-11T19:33:42.816Z,100665.97
2023-08-11T19:41:01.249Z,100665.56
2023-08-11T19:48:19.714Z,100669.97
2023-08-11T19:55:39.564Z,100666.53
2023-08-11T20:02:57.886Z,100654.56
2023-08-11T20:10:16.264Z,100653.97
2023-08-11T20:17:36.041Z,100651.13
2023-08-11T20:24:54.373Z,100643.72
2023-08-11T20:32:13.140Z,100640.22
2023-08-11T20:39:38.377Z,100642.03
2023-08-11T20:46:56.864Z,100629.56
2023-08-11T20:54:15.244Z,100629.19
2023-08-11T21:01:35.354Z,100640.78
2023-08-11T21:08:53.822Z,100641.41
2023-08-11T21:16:12.550Z,100642.19
2023-08-11T21:23:32.633Z,100644.00
2023-08-11T21:31:03.781Z,100647.34
2023-08-11T21:38:26.335Z,100641.06
2023-08-11T21:45:46.534Z,100649.69
2023-08-11T21:53:21.292Z,100633.34
2023-08-11T22:00:45.105Z,100638.66
2023-08-11T22:08:05.702Z,100632.38
2023-08-11T22:15:24.441Z,100623.75
2023-08-11T22:22:42.942Z,100630.66
2023-08-11T22:30:03.391Z,100627.72
2023-08-11T22:37:22.066Z,100641.19
2023-08-11T22:44:40.545Z,100638.72
2023-08-11T22:52:00.428Z,100632.41
2023-08-11T22:59:21.049Z,100631.06
2023-08-11T23:06:39.486Z,100628.22
2023-08-11T23:13:59.713Z,100627.78
2023-08-11T23:21:18.189Z,100630.00
2023-08-11T23:28:37.431Z,100632.19
2023-08-11T23:35:57.263Z,100629.41
2023-08-11T23:43:16.197Z,100642.00
2023-08-11T23:50:34.714Z,100633.50
2023-08-11T23:57:54.735Z,100635.50
